Gas City, IN (46933)

8:56 PM EDT on July 27, 2016 (GMT -0400)
MY Yard Barn | | Change Station

Elev 853 ft 40.49 °N, 85.62 °W | Updated 42 seconds ago

Haze
Haze
82.0 °F
Feels Like 85 °F
N
0.6
Wind Variable Wind from West
Gusts 1.5 mph

Today
High -- | Low -- °F
--% Chance of Precip.
Yesterday
High -- | Low -- °F
Precip. -- in
Pressure 29.95 in
Visibility 1.8 miles
Clouds
Heat Index 85 °F
Dew Point 67 °F
Humidity 61%
Rainfall 0.00 in
Snow Depth Not available.
6:35 AM 9:01 PM
Last Quarter, 38% visible
METAR KMZZ 280035Z AUTO 00000KT 1 3/4SM HZ VV007 26/21 A2995 RMK AO2 T02620205
Pressure 29.95 in
Visibility 1.8 miles
Clouds
Heat Index 85 °F
Dew Point 67 °F
Humidity 61%
Rainfall 0.00 in
Snow Depth Not available.
6:35 AM 9:01 PM
Last Quarter, 38% visible
METAR KMZZ 280035Z AUTO 00000KT 1 3/4SM HZ VV007 26/21 A2995 RMK AO2 T02620205

10-Day Weather Forecast

Almanac

Astronomy

Jul. 27, 2016 Rise Set
Actual Time
Civil Twilight
Nautical Twilight
Astronomical Twilight
Moon
Length of Visible Light
Length of Day
Tomorrow will be .
, % of the Moon is Illuminated

Today's Extremes

State Highs State Lows

Community

WunderPhotos

Upload Photos

1,927,986 photos uploaded!

WunderBlog® & News

Nearby

Air Quality

  Air Quality AQ Index Pollutant
Not available.

Snow Depth

Station Depth Elevation

Earthquake Activity

City Distance Mag. Time & Date
Minimum magnitude displayed is 2.5.

Coastal Water Temperatures

Place Temperature

Stations

Nearby Weather Stations

Station Location Temp. Windchill Dew Point Humidity Wind Precip. Elev Updated Type
                   

Watches & Warnings

There are currently no watches in effect.